Time;durP1;ratioP1;P1;durP2;ratioP2;P2;SDS_P1;SDS_P2;PMS_P1;PMS_P2;Temp;Humidity;BMP_temperature;BMP_pressure;BME280_temperature;BME280_humidity;BME280_pressure;Samples;Min_cycle;Max_cycle;Signal;HPM_P1;HPM_P2
2022/03/16 04:57:05;;;;;;;28.85;20.52;;;;;;;10.50;56.51;100753.81;5605950;31;80694;-54
2022/03/16 05:00:09;;;;;;;32.13;20.52;;;;;;;10.50;56.51;100753.81;5583765;31;31925;-53
2022/03/16 05:03:12;;;;;;;29.73;20.70;;;;;;;10.05;57.12;100764.25;5583738;31;33606;-54
2022/03/16 05:06:14;;;;;;;29.63;20.52;;;;;;;10.09;56.59;100762.63;5583651;32;33691;-54
2022/03/16 05:09:16;;;;;;;33.33;21.08;;;;;;;10.10;56.72;100760.78;5572686;31;33691;-54
2022/03/16 05:12:19;;;;;;;28.65;20.05;;;;;;;10.10;56.00;100769.63;5580796;31;33543;-54
2022/03/16 05:15:21;;;;;;;28.23;20.25;;;;;;;10.22;57.04;100755.94;5571579;32;34167;-54
2022/03/16 05:18:23;;;;;;;29.67;20.52;;;;;;;10.25;55.49;100779.50;5583629;32;34012;-54
2022/03/16 05:21:25;;;;;;;31.92;21.75;;;;;;;10.22;56.57;100779.25;5582649;32;33615;-54
2022/03/16 05:24:28;;;;;;;32.13;21.40;;;;;;;10.13;55.99;100784.31;5583615;32;33515;-54
2022/03/16 05:27:30;;;;;;;28.62;21.40;;;;;;;10.13;57.98;100770.94;5583458;31;34355;-54
2022/03/16 05:30:33;;;;;;;29.10;22.60;;;;;;;10.15;58.99;100781.41;5582890;31;33664;-55
2022/03/16 05:33:35;;;;;;;32.65;22.58;;;;;;;10.17;59.12;100776.59;5581350;31;33818;-54
2022/03/16 05:36:37;;;;;;;28.45;21.12;;;;;;;10.09;57.52;100775.22;5583226;31;34357;-54
2022/03/16 05:39:39;;;;;;;30.88;23.00;;;;;;;10.24;57.13;100769.09;5583139;32;33773;-54
2022/03/16 05:42:42;;;;;;;33.60;22.35;;;;;;;10.10;58.03;100776.84;5576636;31;33904;-55
2022/03/16 05:45:44;;;;;;;36.28;23.67;;;;;;;10.12;58.08;100772.00;5582466;32;33209;-54
2022/03/16 05:48:47;;;;;;;30.52;22.27;;;;;;;10.01;58.03;100773.88;5583048;31;33761;-54
2022/03/16 05:51:49;;;;;;;27.83;20.98;;;;;;;9.95;58.44;100796.37;5567856;32;34294;-54
2022/03/16 05:54:54;;;;;;;32.40;23.42;;;;;;;9.86;58.69;100793.41;5581002;32;33840;-54
2022/03/16 05:57:58;;;;;;;31.70;22.45;;;;;;;9.94;58.96;100810.03;5581242;31;34360;-54
2022/03/16 06:01:00;;;;;;;29.55;22.90;;;;;;;10.03;59.29;100808.44;5582172;32;33402;-54
2022/03/16 06:04:03;;;;;;;30.67;20.98;;;;;;;10.26;59.10;100807.94;5582805;32;33150;-54
2022/03/16 06:07:07;;;;;;;30.48;19.55;;;;;;;10.36;59.56;100807.13;5575540;32;33351;-54
2022/03/16 06:10:12;;;;;;;28.48;20.30;;;;;;;10.58;58.17;100812.25;5557120;32;34335;-55
2022/03/16 06:13:14;;;;;;;26.62;20.08;;;;;;;10.67;58.89;100810.63;5557557;32;33865;-54
2022/03/16 06:16:17;;;;;;;28.85;19.90;;;;;;;10.61;58.94;100803.66;5569352;32;33801;-54
2022/03/16 06:19:19;;;;;;;30.10;20.17;;;;;;;10.57;59.40;100808.75;5555522;32;33626;-54
2022/03/16 06:22:22;;;;;;;26.75;20.20;;;;;;;10.77;59.01;100799.09;5552238;32;33603;-54
2022/03/16 06:25:25;;;;;;;33.90;20.05;;;;;;;10.99;58.02;100804.94;5565245;32;33961;-53
2022/03/16 06:28:27;;;;;;;30.80;20.58;;;;;;;11.04;58.57;100812.16;5556580;32;34513;-54
2022/03/16 06:31:29;;;;;;;29.42;19.75;;;;;;;11.11;57.87;100826.09;5569053;32;33733;-54
2022/03/16 06:34:32;;;;;;;28.30;20.48;;;;;;;11.05;57.50;100827.97;5569510;32;34374;-54
2022/03/16 06:37:35;;;;;;;25.45;19.05;;;;;;;11.17;56.94;100822.31;5568755;32;33678;-54
2022/03/16 06:40:39;;;;;;;27.52;19.70;;;;;;;11.13;58.20;100831.22;5557843;32;34337;-54
2022/03/16 06:43:41;;;;;;;29.65;19.75;;;;;;;10.97;58.91;100823.19;5569248;32;33570;-54
2022/03/16 06:46:43;;;;;;;26.85;17.95;;;;;;;11.13;58.39;100826.63;5568690;32;33666;-54
2022/03/16 06:49:46;;;;;;;29.33;19.30;;;;;;;11.13;57.67;100826.63;5568298;32;33693;-54
2022/03/16 06:52:48;;;;;;;24.15;18.92;;;;;;;11.00;58.17;100817.28;5569243;32;33716;-54
2022/03/16 06:55:51;;;;;;;29.42;19.15;;;;;;;10.97;59.29;100819.69;5560829;32;33780;-54
2022/03/16 06:58:56;;;;;;;28.15;19.05;;;;;;;10.93;61.06;100827.50;5564785;32;33293;-54
2022/03/16 07:01:58;;;;;;;25.27;18.45;;;;;;;10.90;62.83;100827.22;5549601;32;34211;-54
2022/03/16 07:05:01;;;;;;;25.83;18.87;;;;;;;11.12;61.88;100832.25;5548894;32;33583;-54
2022/03/16 07:08:07;;;;;;;23.17;18.45;;;;;;;10.89;61.82;100839.81;5549066;32;33750;-54
2022/03/16 07:11:10;;;;;;;26.20;19.33;;;;;;;10.83;62.70;100835.56;5550110;32;33687;-54
2022/03/16 07:17:36;;;;;;;25.52;20.17;;;;;;;10.73;63.64;100838.25;5553311;31;32467;-54
2022/03/16 07:20:41;;;;;;;26.08;21.10;;;;;;;10.41;63.84;100847.34;5548742;32;33629;-54
2022/03/16 07:23:43;;;;;;;28.70;22.30;;;;;;;10.35;64.33;100851.09;5549467;32;34296;-54
2022/03/16 07:26:46;;;;;;;28.58;21.23;;;;;;;10.54;62.27;100843.34;5561279;32;33563;-54
2022/03/16 07:29:48;;;;;;;26.92;22.25;;;;;;;10.49;62.43;100844.13;5568228;32;34511;-54
2022/03/16 07:32:51;;;;;;;26.17;21.10;;;;;;;10.60;61.54;100850.31;5566918;32;33591;-54
2022/03/16 07:35:55;;;;;;;28.00;20.48;;;;;;;10.60;61.17;100853.00;5553536;32;33690;-54
2022/03/16 07:38:57;;;;;;;26.83;20.45;;;;;;;10.60;60.48;100853.00;5565943;32;33640;-54
2022/03/16 07:41:59;;;;;;;35.70;19.52;;;;;;;10.65;60.47;100857.53;5548770;32;33966;-54
2022/03/16 07:45:03;;;;;;;29.45;20.02;;;;;;;10.76;59.48;100840.37;5561671;32;34314;-54
2022/03/16 07:48:06;;;;;;;27.52;19.77;;;;;;;10.54;60.05;100857.53;5568934;32;33486;-54
2022/03/16 07:51:09;;;;;;;24.58;19.87;;;;;;;10.53;59.95;100861.31;5568059;32;34508;-54
2022/03/16 07:54:11;;;;;;;28.65;20.00;;;;;;;10.65;59.24;100858.34;5560628;32;33415;-54
2022/03/16 07:57:16;;;;;;;25.10;18.67;;;;;;;10.65;58.60;100857.53;5554937;32;33710;-54
2022/03/16 08:00:18;;;;;;;25.80;20.12;;;;;;;10.52;59.65;100870.41;5549112;32;33731;-54
2022/03/16 08:03:21;;;;;;;27.80;20.73;;;;;;;10.53;58.94;100869.34;5548477;32;33440;-54
2022/03/16 08:06:23;;;;;;;25.00;20.12;;;;;;;10.38;59.74;100863.97;5549371;32;34450;-54
2022/03/16 08:09:26;;;;;;;29.58;19.95;;;;;;;10.54;58.46;100868.28;5549155;32;33588;-54
2022/03/16 08:12:29;;;;;;;28.15;21.02;;;;;;;10.12;59.92;100871.13;5550195;32;34438;-54
2022/03/16 08:15:33;;;;;;;28.40;20.45;;;;;;;9.79;60.50;100875.06;5568190;32;33062;-53
2022/03/16 08:18:36;;;;;;;26.95;20.62;;;;;;;10.00;59.87;100873.22;5550603;32;34451;-55
2022/03/16 08:21:38;;;;;;;29.63;19.83;;;;;;;10.01;59.92;100874.88;5550103;32;33700;-56
2022/03/16 08:24:40;;;;;;;26.30;19.98;;;;;;;10.21;59.04;100868.75;5549153;32;33911;-56
2022/03/16 08:28:01;;;;;;;27.60;20.77;;;;;;;10.12;58.82;100866.56;5548991;32;34306;-54
2022/03/16 08:31:03;;;;;;;24.30;18.65;;;;;;;9.85;60.16;100885.53;5560985;32;34239;-54
2022/03/16 08:34:06;;;;;;;27.70;20.23;;;;;;;10.20;59.57;100881.34;5567534;32;34339;-54
2022/03/16 08:37:09;;;;;;;24.58;19.02;;;;;;;10.46;59.17;100887.56;5553915;32;33687;-54
2022/03/16 08:40:15;;;;;;;31.10;20.75;;;;;;;10.37;60.30;100902.56;5548330;32;34248;-54
2022/03/16 08:43:17;;;;;;;31.27;19.73;;;;;;;10.04;61.16;100893.88;5549358;32;33620;-54
2022/03/16 08:46:20;;;;;;;27.10;19.80;;;;;;;9.99;61.88;100901.91;5548728;32;33728;-54
2022/03/16 08:49:24;;;;;;;25.52;19.42;;;;;;;9.83;62.20;100911.78;5563362;32;33633;-54
2022/03/16 08:52:27;;;;;;;24.75;19.12;;;;;;;9.80;62.62;100916.81;5561247;32;33670;-56
2022/03/16 08:55:29;;;;;;;24.40;18.98;;;;;;;9.82;62.75;100920.06;5555233;32;34283;-54
2022/03/16 08:58:33;;;;;;;24.92;18.77;;;;;;;9.83;62.92;100919.81;5567748;32;33579;-55
2022/03/16 09:01:38;;;;;;;26.42;18.23;;;;;;;9.69;63.98;100928.56;5567421;32;34262;-54
2022/03/16 09:04:41;;;;;;;22.73;17.80;;;;;;;9.83;63.75;100927.84;5566398;32;34305;-54
2022/03/16 09:07:43;;;;;;;22.75;17.95;;;;;;;9.57;64.86;100931.44;5563493;32;34270;-54
2022/03/16 09:10:47;;;;;;;25.67;20.52;;;;;;;9.63;64.84;100947.28;5565976;32;34805;-54
2022/03/16 09:13:49;;;;;;;29.27;20.12;;;;;;;9.59;65.52;100940.81;5561220;32;34413;-54
2022/03/16 09:16:52;;;;;;;26.52;19.45;;;;;;;9.36;66.23;100947.38;5566472;32;34325;-54
2022/03/16 09:19:54;;;;;;;27.83;19.85;;;;;;;9.69;64.72;100945.44;5562286;32;33922;-54
2022/03/16 09:22:59;;;;;;;27.83;19.98;;;;;;;9.61;63.74;100945.94;5565680;32;34291;-54
2022/03/16 09:26:02;;;;;;;29.35;20.60;;;;;;;9.26;64.56;100957.22;5560972;32;34055;-54
2022/03/16 09:29:08;;;;;;;28.08;20.10;;;;;;;9.36;64.03;100968.78;5566518;32;33729;-54
2022/03/16 09:32:10;;;;;;;28.65;20.58;;;;;;;9.13;64.79;100969.94;5560451;32;33611;-54
2022/03/16 09:35:12;;;;;;;31.10;21.85;;;;;;;9.25;64.09;100975.13;5566431;32;33235;-54
2022/03/16 09:38:16;;;;;;;28.85;21.15;;;;;;;9.14;64.73;100981.47;5567166;32;34588;-54
2022/03/16 09:41:20;;;;;;;25.80;20.83;;;;;;;9.18;65.60;100975.34;5557005;32;33601;-54
2022/03/16 09:44:23;;;;;;;30.10;21.83;;;;;;;9.47;64.20;100983.06;5567728;32;32237;-54
2022/03/16 09:47:28;;;;;;;27.70;21.35;;;;;;;9.62;63.42;100988.50;5568438;32;33729;-54
2022/03/16 09:50:31;;;;;;;25.37;20.00;;;;;;;9.55;63.73;100995.94;5562990;32;33547;-55
2022/03/16 09:53:33;;;;;;;29.40;21.95;;;;;;;9.63;63.76;100994.66;5564934;32;34325;-54
2022/03/16 09:56:36;;;;;;;29.50;21.73;;;;;;;9.29;65.10;101011.00;5564672;32;34068;-54
2022/03/16 09:59:38;;;;;;;27.37;21.37;;;;;;;8.99;66.75;101002.75;5567373;32;34383;-54
2022/03/16 10:02:41;;;;;;;28.98;22.55;;;;;;;9.16;66.42;101009.56;5562519;32;34438;-54
2022/03/16 10:05:47;;;;;;;28.45;22.87;;;;;;;9.17;66.58;101013.88;5549088;32;33218;-54
2022/03/16 10:15:35;;;;;;;28.33;21.00;;;;;;;9.40;65.49;101022.59;5569546;32;33742;-54
2022/03/16 10:18:38;;;;;;;25.83;20.73;;;;;;;9.26;66.46;101019.53;5566289;32;34467;-54
2022/03/16 10:22:00;;;;;;;29.90;20.85;;;;;;;9.24;67.05;101016.34;5568752;32;33670;-55
2022/03/16 10:25:06;;;;;;;28.40;21.98;;;;;;;9.20;67.54;101020.56;5562427;32;34404;-55
2022/03/16 10:28:17;;;;;;;31.50;21.27;;;;;;;9.15;68.07;101020.53;5558244;32;33229;-53
2022/03/16 10:31:19;;;;;;;24.63;20.20;;;;;;;9.23;68.00;101021.94;5565497;32;33844;-54
2022/03/16 10:34:22;;;;;;;26.27;19.95;;;;;;;9.23;68.13;101013.91;5568572;32;34526;-54
2022/03/16 10:37:26;;;;;;;25.05;20.65;;;;;;;9.16;68.71;101024.81;5560658;32;33585;-55
2022/03/16 10:40:28;;;;;;;24.70;20.62;;;;;;;9.12;68.95;101018.38;5562876;32;34263;-54
2022/03/16 10:46:52;;;;;;;29.45;21.15;;;;;;;9.23;69.49;101024.59;5558610;32;33744;-54
2022/03/16 10:50:09;;;;;;;27.05;20.15;;;;;;;9.52;68.03;101022.41;5559568;32;33662;-54
2022/03/16 10:53:14;;;;;;;24.37;19.98;;;;;;;9.71;67.38;101026.31;5564733;32;33855;-55
2022/03/16 10:56:20;;;;;;;22.70;18.60;;;;;;;9.79;67.13;101027.69;5559084;32;34375;-54
2022/03/16 10:59:29;;;;;;;24.98;20.80;;;;;;;9.87;67.14;101032.56;5561581;32;33768;-54
2022/03/16 11:02:34;;;;;;;24.87;20.17;;;;;;;9.78;67.51;101029.56;5560951;32;33960;-54
2022/03/16 11:05:37;;;;;;;22.40;18.67;;;;;;;9.76;67.65;101034.34;5560587;32;33641;-53
2022/03/16 11:08:41;;;;;;;22.50;18.52;;;;;;;9.96;67.10;101039.00;5568385;32;34399;-54
2022/03/16 11:15:06;;;;;;;22.67;18.60;;;;;;;9.82;66.85;101052.06;5554805;32;33849;-54
2022/03/16 11:18:10;;;;;;;20.27;17.20;;;;;;;9.69;67.34;101059.75;5562599;32;33262;-54
2022/03/16 11:21:18;;;;;;;27.75;18.60;;;;;;;9.83;66.62;101060.91;5557176;32;33715;-54
2022/03/16 11:24:23;;;;;;;22.70;18.25;;;;;;;9.64;67.25;101063.19;5561621;32;34484;-54
2022/03/16 11:27:34;;;;;;;22.58;19.48;;;;;;;9.69;67.10;101065.91;5568624;32;33801;-54
2022/03/16 11:30:37;;;;;;;26.48;19.83;;;;;;;9.57;67.63;101066.09;5565330;32;33748;-54
2022/03/16 11:33:50;;;;;;;28.87;20.83;;;;;;;9.48;67.58;101064.94;5560007;32;34394;-54
2022/03/16 11:37:32;;;;;;;22.98;19.83;;;;;;;9.46;67.46;101068.94;5561977;32;32197;-54
2022/03/16 11:40:38;;;;;;;25.02;19.33;;;;;;;9.50;66.96;101062.81;5549009;32;34311;-54
2022/03/16 11:43:41;;;;;;;22.80;19.40;;;;;;;9.53;66.12;101059.63;5554697;32;33833;-54
2022/03/16 11:46:46;;;;;;;22.75;18.42;;;;;;;9.57;65.80;101074.13;5566215;32;33661;-54
2022/03/16 11:50:13;;;;;;;24.12;19.30;;;;;;;9.40;65.40;101060.87;5566937;32;34118;-54
2022/03/16 11:53:17;;;;;;;24.80;19.50;;;;;;;9.36;65.14;101062.44;5567750;32;33654;-54
2022/03/16 11:56:23;;;;;;;24.00;19.75;;;;;;;9.27;65.85;101058.62;5567159;32;33776;-54
2022/03/16 11:59:27;;;;;;;24.00;19.65;;;;;;;9.52;66.21;101065.25;5562431;32;34381;-54
2022/03/16 12:02:30;;;;;;;26.27;21.65;;;;;;;9.43;65.29;101061.41;5553963;32;33918;-54
2022/03/16 12:05:55;;;;;;;24.73;19.80;;;;;;;9.48;65.16;101059.59;5562047;32;34335;-54
2022/03/16 12:09:02;;;;;;;26.37;21.30;;;;;;;9.57;64.42;101058.06;5564474;32;34262;-54
2022/03/16 12:15:41;;;;;;;27.58;21.67;;;;;;;9.50;64.74;101075.38;5560782;32;34335;-54
2022/03/16 12:18:46;;;;;;;25.23;20.92;;;;;;;9.67;64.48;101091.31;5562582;32;32715;-54
2022/03/16 12:21:50;;;;;;;25.10;20.17;;;;;;;9.87;63.39;101108.34;5567948;32;34349;-54
2022/03/16 12:25:22;;;;;;;25.20;19.87;;;;;;;9.87;62.78;101105.66;5563576;32;33770;-54
2022/03/16 12:32:00;;;;;;;24.65;19.08;;;;;;;9.55;63.01;101102.22;5563938;32;34378;-54
2022/03/16 12:35:05;;;;;;;22.45;19.05;;;;;;;9.41;63.14;101102.63;5567823;32;33276;-54
2022/03/16 12:38:10;;;;;;;28.95;20.05;;;;;;;9.65;62.32;101102.28;5563417;32;34430;-54
2022/03/16 12:44:42;;;;;;;25.23;21.23;;;;;;;9.15;64.02;101111.47;5564246;32;34425;-54
2022/03/16 12:48:03;;;;;;;22.87;19.40;;;;;;;8.87;65.17;101093.78;5564948;32;33235;-53
2022/03/16 12:51:05;;;;;;;24.60;19.87;;;;;;;9.22;63.73;101100.59;5566592;32;33678;-55
2022/03/16 12:54:08;;;;;;;24.85;20.17;;;;;;;9.23;63.32;101104.84;5558333;32;34633;-54
2022/03/16 12:57:15;;;;;;;27.92;17.98;;;;;;;9.56;61.52;101109.16;5560368;32;34452;-54
2022/03/16 13:00:18;;;;;;;24.15;18.52;;;;;;;9.47;61.31;101116.03;5567710;32;34321;-55
2022/03/16 13:03:20;;;;;;;26.27;19.55;;;;;;;9.64;61.37;101122.09;5567530;32;33788;-55
2022/03/16 13:06:24;;;;;;;23.12;18.20;;;;;;;9.71;60.95;101114.66;5567706;32;33704;-55
2022/03/16 13:09:28;;;;;;;23.98;17.98;;;;;;;9.93;60.06;101119.88;5567759;31;33369;-55
2022/03/16 13:12:30;;;;;;;21.73;18.02;;;;;;;9.99;59.74;101126.09;5562115;32;34213;-55
2022/03/16 13:15:33;;;;;;;23.80;17.95;;;;;;;9.78;60.17;101128.63;5548368;32;33622;-55
2022/03/16 13:18:36;;;;;;;22.08;16.95;;;;;;;10.09;59.42;101126.16;5565096;32;33920;-55
2022/03/16 13:21:39;;;;;;;19.85;16.58;;;;;;;10.18;58.53;101134.53;5559130;32;34375;-55
2022/03/16 13:24:44;;;;;;;24.58;17.15;;;;;;;10.01;59.06;101134.69;5569547;32;34258;-55
2022/03/16 13:27:51;;;;;;;18.67;15.38;;;;;;;10.11;59.09;101142.78;5551328;32;33589;-55
2022/03/16 13:30:53;;;;;;;21.42;16.45;;;;;;;9.91;59.83;101146.13;5550318;32;33831;-55
2022/03/16 13:34:02;;;;;;;20.83;16.60;;;;;;;10.05;58.31;101144.63;5569261;32;34391;-55
2022/03/16 13:37:21;;;;;;;21.90;16.48;;;;;;;9.86;59.25;101143.41;5569926;32;33691;-55
2022/03/16 13:40:30;;;;;;;18.92;15.80;;;;;;;10.11;58.60;101154.31;5569611;32;33599;-55
2022/03/16 13:43:32;;;;;;;19.87;16.67;;;;;;;9.85;59.30;101152.50;5569913;32;34259;-55
2022/03/16 13:46:39;;;;;;;20.33;15.85;;;;;;;9.88;59.06;101160.84;5570289;32;33697;-55
2022/03/16 13:49:43;;;;;;;19.85;15.52;;;;;;;10.07;58.52;101166.59;5570098;32;34379;-55
2022/03/16 13:52:47;;;;;;;18.02;14.93;;;;;;;10.01;58.77;101166.84;5569693;32;34311;-55
2022/03/16 13:55:53;;;;;;;19.20;15.73;;;;;;;10.10;58.31;101167.97;5570177;32;34376;-55
2022/03/16 13:58:57;;;;;;;16.80;13.57;;;;;;;9.97;58.67;101171.91;5570010;32;34491;-55
2022/03/16 14:02:10;;;;;;;17.02;13.45;;;;;;;10.28;57.51;101166.78;5569224;32;34362;-55
2022/03/16 14:05:19;;;;;;;14.75;12.20;;;;;;;10.33;57.14;101172.16;5569750;32;33521;-55
2022/03/16 14:08:24;;;;;;;14.93;12.10;;;;;;;10.19;57.23;101165.59;5550556;32;33040;-55
2022/03/16 14:11:33;;;;;;;15.45;11.20;;;;;;;10.05;57.20;101171.41;5551892;32;34395;-55
2022/03/16 14:14:35;;;;;;;13.52;10.57;;;;;;;9.97;56.32;101173.78;5569687;32;33817;-55
2022/03/16 14:18:11;;;;;;;13.88;11.57;;;;;;;10.04;55.86;101166.31;5570104;32;33650;-55
2022/03/16 14:21:13;;;;;;;14.93;12.02;;;;;;;9.79;56.92;101157.00;5564352;31;33880;-55
2022/03/16 14:24:16;;;;;;;13.62;12.20;;;;;;;9.72;57.74;101163.66;5569494;32;33489;-55
2022/03/16 14:27:26;;;;;;;15.10;11.60;;;;;;;9.96;57.30;101177.50;5568349;32;33680;-55
2022/03/16 14:30:45;;;;;;;15.50;11.70;;;;;;;10.22;56.20;101173.13;5569811;32;33847;-55
2022/03/16 14:33:47;;;;;;;13.48;11.32;;;;;;;10.29;56.18;101192.50;5568360;32;34091;-55
2022/03/16 14:36:50;;;;;;;14.85;10.70;;;;;;;10.06;56.45;101190.97;5569209;32;33729;-55
2022/03/16 14:40:07;;;;;;;11.48;9.35;;;;;;;10.09;56.73;101198.47;5569843;32;33693;-55
2022/03/16 14:43:10;;;;;;;12.93;10.23;;;;;;;10.09;57.05;101187.78;5569047;32;33565;-55
2022/03/16 14:46:14;;;;;;;10.13;8.75;;;;;;;10.32;55.20;101206.19;5569055;32;33878;-55
2022/03/16 14:49:17;;;;;;;8.90;7.85;;;;;;;10.47;54.89;101216.22;5568810;32;33715;-55
2022/03/16 14:52:19;;;;;;;8.45;7.55;;;;;;;10.19;54.45;101211.16;5550415;32;33827;-55
2022/03/16 14:55:27;;;;;;;11.10;8.23;;;;;;;10.22;54.22;101218.69;5560696;32;33719;-55
2022/03/16 14:58:29;;;;;;;9.80;7.97;;;;;;;10.48;53.73;101228.53;5569195;32;33871;-55
2022/03/16 15:01:32;;;;;;;9.55;8.15;;;;;;;10.39;53.98;101224.72;5569441;32;33224;-55
2022/03/16 15:04:34;;;;;;;7.70;6.95;;;;;;;10.24;53.73;101232.63;5560389;32;33638;-55
2022/03/16 15:07:37;;;;;;;9.68;8.43;;;;;;;10.45;53.46;101223.69;5569074;32;34007;-55
2022/03/16 15:10:40;;;;;;;9.68;8.05;;;;;;;10.25;53.48;101224.34;5568777;32;34297;-55
2022/03/16 15:13:42;;;;;;;9.77;7.53;;;;;;;10.39;53.49;101226.59;5569147;32;33123;-55
2022/03/16 15:16:45;;;;;;;8.50;7.60;;;;;;;10.55;52.96;101231.78;5568673;32;34247;-55
2022/03/16 15:19:47;;;;;;;9.23;7.45;;;;;;;10.38;53.13;101228.47;5568721;32;33754;-55
2022/03/16 15:22:49;;;;;;;8.73;7.68;;;;;;;10.19;53.69;101237.94;5568217;32;34396;-55
2022/03/16 15:25:53;;;;;;;9.02;7.60;;;;;;;10.16;54.72;101236.56;5569195;32;33691;-54
2022/03/16 15:28:55;;;;;;;11.50;8.60;;;;;;;10.24;54.12;101225.41;5568747;32;34431;-55
2022/03/16 15:31:58;;;;;;;10.88;7.57;;;;;;;10.08;54.34;101235.19;5569073;32;34313;-55
2022/03/16 15:35:01;;;;;;;9.68;8.00;;;;;;;10.15;54.65;101245.69;5569289;32;34273;-55
2022/03/16 15:38:04;;;;;;;11.60;7.97;;;;;;;9.89;55.09;101242.78;5568757;32;34366;-55
2022/03/16 15:44:27;;;;;;;11.35;8.40;;;;;;;10.16;54.42;101257.22;5569052;32;33688;-55
2022/03/16 15:47:29;;;;;;;8.52;6.97;;;;;;;10.05;54.39;101256.31;5567947;32;33226;-55
2022/03/16 15:50:32;;;;;;;8.30;7.40;;;;;;;10.17;53.60;101254.28;5568192;32;33623;-56
2022/03/16 15:53:34;;;;;;;8.80;7.35;;;;;;;10.25;53.59;101251.13;5569115;32;33597;-55
2022/03/16 15:56:42;;;;;;;8.52;7.62;;;;;;;10.30;53.42;101259.25;5568840;32;33727;-55
2022/03/16 15:59:44;;;;;;;8.25;7.35;;;;;;;10.58;52.88;101252.72;5568533;32;34414;-55
2022/03/16 16:02:50;;;;;;;8.57;7.68;;;;;;;10.50;52.85;101258.59;5569054;32;33734;-55
2022/03/16 16:05:53;;;;;;;10.40;8.48;;;;;;;10.27;53.78;101261.63;5569198;32;34382;-55
2022/03/16 16:08:58;;;;;;;8.82;7.80;;;;;;;10.20;54.29;101267.19;5568925;32;33371;-55
2022/03/16 16:12:01;;;;;;;;;;;;;;;10.20;54.24;101269.88;5569377;32;33908;-55
2022/03/16 16:15:05;;;;;;;8.82;7.90;;;;;;;10.41;53.50;101275.41;5569138;32;34691;-55
2022/03/16 16:18:08;;;;;;;11.43;8.90;;;;;;;10.35;53.57;101269.19;5568833;32;33640;-55
2022/03/16 16:21:10;;;;;;;9.45;8.45;;;;;;;10.59;52.92;101269.62;5568952;32;34234;-55
2022/03/16 16:24:14;;;;;;;9.68;7.22;;;;;;;10.55;52.83;101268.53;5568941;32;33590;-55
2022/03/16 16:27:16;;;;;;;9.27;7.97;;;;;;;10.26;53.82;101281.44;5568859;32;34420;-55
2022/03/16 16:30:19;;;;;;;8.63;7.55;;;;;;;10.14;54.14;101281.59;5568836;32;34299;-55
2022/03/16 16:33:22;;;;;;;9.50;7.93;;;;;;;10.09;54.35;101285.03;5568831;32;33697;-55
2022/03/16 16:36:24;;;;;;;8.88;7.97;;;;;;;10.09;54.55;101278.84;5568709;32;33808;-55
2022/03/16 16:39:27;;;;;;;9.55;7.60;;;;;;;10.18;54.39;101285.38;5568567;32;34266;-55
2022/03/16 16:45:54;;;;;;;10.05;8.43;;;;;;;9.97;54.95;101289.75;5568729;32;33768;-55
2022/03/16 16:48:56;;;;;;;11.38;8.50;;;;;;;10.11;54.65;101282.09;5568523;32;34479;-55
